Strona główna
METAR-TAF:

METAR-TAF

Lotnisko :

Odiham, Anglia

Szerokość geograficzna: 51-14N, Długość geograficzna: 000-57W, wysokość: 123 m

Aktualna obserwacja pogody

Raport powstał 28 minut temu, godzina 15:50 UTC
Wiatr 5 kt od północno-północny zachód
Temperatura 9°C
Wilgotność 87%
Ciśnienie 1014 hPa
Widzialność 10 km lub więcej
Mało chmury na wysokości 800 ft
Przerywane chmury na wysokości 2800 ft

METAR: EGVO 251550Z 33005KT 9999 FEW008 BKN028 09/07 Q1014 TEMPO SCT008 RMK BLU TEMPO GRN

czas: 16:18 (16:18 UTC)

Prognoza

Raport powstał 2 godziny i 22 minut temu, godzina 13:56 UTC
Prognoza ważna od 25 godzina 15 UTC do 26 godzina 03 UTC
Wiatr 8 kt od północno-północny zachód
Widzialność 10 km lub więcej
Przerywane chmury na wysokości 900 ft
Stopniowe zmiany
od 25 godzina 15 UTC do 25 godzina 17 UTC
Mało chmury na wysokości 1500 ft
Rozproszone chmury na wysokości 3000 ft

TAF: EGVO 251356Z 2515/2603 33008KT 9999 BKN009 BECMG 2515/2517 FEW015 SCT030

Obserwacja i prognoza pogody dla ponad 4000 lotnisk (raport METAR i TAF).

Dostępne stacje oznaczono żółtymi i czerwonymi punktami na mapie.

Najedź kursorem aby zobaczyć nazwę stacji.

Kliknij aby zobaczyć obserwacje i prognozy pogody.

Aby zmienić mapę: kliknij na zielony przycisk z czarnym krzyżykiem, aby powiększyć; na zielony przycisk z myślnikiem, aby pomniejszyć; na zielone strzałki, aby przejść do map sąsiednich.


METAR-TAF: